Time;durP1;ratioP1;P1;durP2;ratioP2;P2;SDS_P1;SDS_P2;PMS_P1;PMS_P2;Temp;Humidity;BMP_temperature;BMP_pressure;BME280_temperature;BME280_humidity;BME280_pressure;Samples;Min_cycle;Max_cycle;Signal;HPM_P1;HPM_P2
2021/12/26 00:00:41;;;;;;;129.07;66.13;;;;;;;;;;5024867;28;20024;-82
2021/12/26 00:03:07;;;;;;;135.25;66.13;;;;;;;;;;5030673;28;20524;-82
2021/12/26 00:05:34;;;;;;;129.70;64.10;;;;;;;;;;5023978;28;20025;-81
2021/12/26 00:08:00;;;;;;;137.98;64.40;;;;;;;;;;5010633;28;20496;-82
2021/12/26 00:10:28;;;;;;;117.72;58.03;;;;;;;;;;5015274;28;20124;-83
2021/12/26 00:12:56;;;;;;;126.57;59.42;;;;;;;;;;5033416;28;20048;-81
2021/12/26 00:15:22;;;;;;;129.95;61.42;;;;;;;;;;5033904;28;20491;-81
2021/12/26 00:17:49;;;;;;;128.63;60.35;;;;;;;;;;5031449;28;20072;-82
2021/12/26 00:20:16;;;;;;;138.48;62.10;;;;;;;;;;5047179;28;20017;-80
2021/12/26 00:22:42;;;;;;;144.40;64.70;;;;;;;;;;5047928;28;20022;-82
2021/12/26 00:25:09;;;;;;;131.43;58.40;;;;;;;;;;5033230;28;20085;-82
2021/12/26 00:27:36;;;;;;;143.63;61.67;;;;;;;;;;5047423;28;20033;-82
2021/12/26 00:30:05;;;;;;;165.30;69.28;;;;;;;;;;5040881;28;20032;-80
2021/12/26 00:32:31;;;;;;;172.05;71.50;;;;;;;;;;5039003;28;20091;-84
2021/12/26 00:34:57;;;;;;;152.90;68.03;;;;;;;;;;5033784;28;20025;-82
2021/12/26 00:37:24;;;;;;;170.23;70.65;;;;;;;;;;5033591;28;20030;-82
2021/12/26 00:39:50;;;;;;;143.77;65.90;;;;;;;;;;5033132;28;20036;-82
2021/12/26 00:42:16;;;;;;;136.10;61.20;;;;;;;;;;5012185;28;20377;-82
2021/12/26 00:44:43;;;;;;;151.32;63.65;;;;;;;;;;5032476;28;20090;-82
2021/12/26 00:47:10;;;;;;;158.05;66.35;;;;;;;;;;5032423;28;20041;-82
2021/12/26 00:49:37;;;;;;;148.02;62.22;;;;;;;;;;5033341;28;20033;-82
2021/12/26 00:52:04;;;;;;;135.25;56.65;;;;;;;;;;5033582;28;20030;-82
2021/12/26 00:54:30;;;;;;;154.38;64.80;;;;;;;;;;5032625;28;20025;-82
2021/12/26 00:56:56;;;;;;;136.70;58.22;;;;;;;;;;5030870;28;20037;-81
2021/12/26 00:59:23;;;;;;;129.15;55.95;;;;;;;;;;5010058;28;20026;-81
2021/12/26 01:01:52;;;;;;;130.95;58.22;;;;;;;;;;5031461;28;20022;-83
2021/12/26 01:04:18;;;;;;;141.85;59.20;;;;;;;;;;5012963;28;20037;-82
2021/12/26 01:06:45;;;;;;;151.82;61.53;;;;;;;;;;5019623;28;20038;-82
2021/12/26 01:09:16;;;;;;;145.65;59.47;;;;;;;;;;5013335;28;20547;-81
2021/12/26 01:11:48;;;;;;;152.30;60.78;;;;;;;;;;5027748;28;20133;-82
2021/12/26 01:14:16;;;;;;;167.07;62.47;;;;;;;;;;5014343;28;20391;-82
2021/12/26 01:16:44;;;;;;;221.15;71.00;;;;;;;;;;5032853;28;20495;-81
2021/12/26 01:19:15;;;;;;;159.43;60.63;;;;;;;;;;5032536;28;20033;-82
2021/12/26 01:21:42;;;;;;;174.18;63.25;;;;;;;;;;5032650;28;20092;-82
2021/12/26 01:24:11;;;;;;;174.50;62.10;;;;;;;;;;5032751;28;20044;-82
2021/12/26 01:26:38;;;;;;;202.13;73.80;;;;;;;;;;5033406;28;20036;-82
2021/12/26 01:29:05;;;;;;;201.82;74.13;;;;;;;;;;5026074;28;20059;-81
2021/12/26 01:31:32;;;;;;;193.88;75.10;;;;;;;;;;5034354;28;20060;-82
2021/12/26 01:34:03;;;;;;;203.63;76.82;;;;;;;;;;5031024;28;20017;-81
2021/12/26 01:36:30;;;;;;;246.38;79.53;;;;;;;;;;5024107;28;20033;-83
2021/12/26 01:38:58;;;;;;;230.00;79.28;;;;;;;;;;5023479;28;20500;-82
2021/12/26 01:41:25;;;;;;;253.40;87.33;;;;;;;;;;5025801;28;20056;-81
2021/12/26 01:43:56;;;;;;;240.98;80.95;;;;;;;;;;5017802;28;20491;-81
2021/12/26 01:46:23;;;;;;;242.27;88.30;;;;;;;;;;5036291;28;20036;-81
2021/12/26 01:48:49;;;;;;;246.80;98.10;;;;;;;;;;5035481;28;20037;-82
2021/12/26 01:51:15;;;;;;;292.77;110.80;;;;;;;;;;5036520;28;20492;-82
2021/12/26 01:53:42;;;;;;;227.43;99.53;;;;;;;;;;5036075;28;20045;-81
2021/12/26 01:56:11;;;;;;;243.03;107.93;;;;;;;;;;5036040;28;20469;-81
2021/12/26 01:58:38;;;;;;;254.97;109.23;;;;;;;;;;5018305;28;20025;-80
2021/12/26 02:01:09;;;;;;;228.10;102.27;;;;;;;;;;5034546;28;20034;-81
2021/12/26 02:03:36;;;;;;;265.03;112.50;;;;;;;;;;5035168;28;20025;-81
2021/12/26 02:06:03;;;;;;;286.73;113.17;;;;;;;;;;5035143;28;20037;-82
2021/12/26 02:08:29;;;;;;;262.40;113.63;;;;;;;;;;5036022;28;20029;-82
2021/12/26 02:10:59;;;;;;;269.63;118.03;;;;;;;;;;5027507;28;20060;-82
2021/12/26 02:13:26;;;;;;;301.13;123.60;;;;;;;;;;5010148;28;20029;-81
2021/12/26 02:15:53;;;;;;;280.07;123.40;;;;;;;;;;5015236;28;20037;-82
2021/12/26 02:18:19;;;;;;;301.43;124.37;;;;;;;;;;5030047;28;20050;-83
2021/12/26 02:23:27;;;;;;;284.83;126.97;;;;;;;;;;5033905;28;20033;-83
2021/12/26 02:28:23;;;;;;;282.23;126.63;;;;;;;;;;5028275;28;20393;-82
2021/12/26 02:30:50;;;;;;;290.93;127.77;;;;;;;;;;5028299;28;20021;-82
2021/12/26 02:33:18;;;;;;;289.37;129.57;;;;;;;;;;5030521;28;20054;-82
2021/12/26 02:35:45;;;;;;;298.07;133.90;;;;;;;;;;5012958;28;20039;-82
2021/12/26 02:38:12;;;;;;;307.13;135.87;;;;;;;;;;5028732;28;20032;-81
2021/12/26 02:40:39;;;;;;;280.77;129.23;;;;;;;;;;5028580;28;20500;-82
2021/12/26 02:43:06;;;;;;;262.80;133.07;;;;;;;;;;5029578;28;20033;-82
2021/12/26 02:45:32;;;;;;;294.70;134.90;;;;;;;;;;5030338;28;20029;-81
2021/12/26 02:47:58;;;;;;;287.20;130.33;;;;;;;;;;5021665;28;20511;-81
2021/12/26 02:50:27;;;;;;;283.90;130.47;;;;;;;;;;5041689;28;20063;-82
2021/12/26 02:52:54;;;;;;;276.63;125.77;;;;;;;;;;5033198;28;20041;-81
2021/12/26 02:55:21;;;;;;;268.20;128.73;;;;;;;;;;5015018;28;20032;-81
2021/12/26 02:57:49;;;;;;;267.63;122.80;;;;;;;;;;5029278;28;20041;-82
2021/12/26 03:00:18;;;;;;;258.50;116.53;;;;;;;;;;5031739;28;20033;-82
2021/12/26 03:02:50;;;;;;;219.93;105.30;;;;;;;;;;5028260;28;20472;-82
2021/12/26 03:05:17;;;;;;;221.30;107.68;;;;;;;;;;5008277;28;20476;-82
2021/12/26 03:07:44;;;;;;;217.82;103.38;;;;;;;;;;5021771;28;20105;-81
2021/12/26 03:10:17;;;;;;;211.02;97.38;;;;;;;;;;5025116;28;20072;-81
2021/12/26 03:12:43;;;;;;;198.98;97.93;;;;;;;;;;5033795;28;20083;-81
2021/12/26 03:15:10;;;;;;;203.77;92.47;;;;;;;;;;5033513;28;20017;-82
2021/12/26 03:17:37;;;;;;;194.73;91.18;;;;;;;;;;5013414;28;20045;-83
2021/12/26 03:20:13;;;;;;;165.73;78.32;;;;;;;;;;5032365;28;20117;-83
2021/12/26 03:22:40;;;;;;;169.48;80.85;;;;;;;;;;5010085;28;20401;-82
2021/12/26 03:25:10;;;;;;;174.13;78.65;;;;;;;;;;5010982;28;20056;-81
2021/12/26 03:27:36;;;;;;;150.35;73.93;;;;;;;;;;5027631;28;20029;-82
2021/12/26 03:30:03;;;;;;;146.77;70.45;;;;;;;;;;5028403;28;20029;-81
2021/12/26 03:32:29;;;;;;;140.80;68.07;;;;;;;;;;5027489;28;20026;-82
2021/12/26 03:34:55;;;;;;;145.40;66.57;;;;;;;;;;5023444;28;20034;-84
2021/12/26 03:37:23;;;;;;;133.93;63.88;;;;;;;;;;5025121;28;20030;-81
2021/12/26 03:39:49;;;;;;;136.13;63.75;;;;;;;;;;5023545;28;20361;-82
2021/12/26 03:42:16;;;;;;;129.10;58.85;;;;;;;;;;5000788;28;20171;-83
2021/12/26 03:44:42;;;;;;;137.15;63.15;;;;;;;;;;5020437;28;20037;-83
2021/12/26 03:47:08;;;;;;;139.68;63.30;;;;;;;;;;5036245;28;20041;-82
2021/12/26 03:49:35;;;;;;;140.00;65.35;;;;;;;;;;5016799;28;20059;-81
2021/12/26 03:52:01;;;;;;;138.18;63.35;;;;;;;;;;5021741;28;20427;-82
2021/12/26 03:54:27;;;;;;;143.48;66.38;;;;;;;;;;5025424;28;20121;-81
2021/12/26 03:56:54;;;;;;;157.52;66.95;;;;;;;;;;5034769;28;20021;-81
2021/12/26 03:59:20;;;;;;;159.45;69.97;;;;;;;;;;5018160;28;20403;-82
2021/12/26 04:01:46;;;;;;;148.68;67.65;;;;;;;;;;5027897;28;20109;-82
2021/12/26 04:04:13;;;;;;;157.82;68.80;;;;;;;;;;5028376;28;20041;-82
2021/12/26 04:06:39;;;;;;;155.43;72.70;;;;;;;;;;5033579;28;20108;-81
2021/12/26 04:09:08;;;;;;;157.88;69.78;;;;;;;;;;5029685;28;20029;-82
2021/12/26 04:11:36;;;;;;;166.70;73.63;;;;;;;;;;5025804;28;20033;-81
2021/12/26 04:14:03;;;;;;;172.30;77.60;;;;;;;;;;5027202;28;20064;-82
2021/12/26 04:16:29;;;;;;;176.95;75.25;;;;;;;;;;5006257;28;20037;-83
2021/12/26 04:18:55;;;;;;;176.90;77.30;;;;;;;;;;5022704;28;20121;-82
2021/12/26 04:21:22;;;;;;;162.90;75.55;;;;;;;;;;5007635;28;20403;-82
2021/12/26 04:23:48;;;;;;;175.57;75.93;;;;;;;;;;5013661;28;20033;-82
2021/12/26 04:26:14;;;;;;;163.10;72.60;;;;;;;;;;5025371;28;20064;-81
2021/12/26 04:28:41;;;;;;;173.27;75.75;;;;;;;;;;5006800;28;20029;-81
2021/12/26 04:31:07;;;;;;;162.38;71.85;;;;;;;;;;5029562;28;20033;-82
2021/12/26 04:33:33;;;;;;;179.27;77.97;;;;;;;;;;5006159;28;20091;-82
2021/12/26 04:36:00;;;;;;;163.02;70.68;;;;;;;;;;5028333;28;20090;-81
2021/12/26 04:38:26;;;;;;;163.40;72.45;;;;;;;;;;5027924;28;20045;-83
2021/12/26 04:40:53;;;;;;;155.63;68.85;;;;;;;;;;5026868;28;20052;-82
2021/12/26 04:43:21;;;;;;;162.57;67.75;;;;;;;;;;5034574;28;20118;-81
2021/12/26 04:45:48;;;;;;;161.18;66.78;;;;;;;;;;5043135;28;20038;-82
2021/12/26 04:48:15;;;;;;;155.25;67.35;;;;;;;;;;5018711;28;20025;-80
2021/12/26 04:50:41;;;;;;;160.48;68.28;;;;;;;;;;5041773;28;20091;-81
2021/12/26 04:53:08;;;;;;;158.07;66.53;;;;;;;;;;5045531;28;20039;-81
2021/12/26 04:55:34;;;;;;;157.02;67.25;;;;;;;;;;5044625;28;20061;-83
2021/12/26 04:58:01;;;;;;;156.85;67.90;;;;;;;;;;5021183;28;20026;-82
2021/12/26 05:00:30;;;;;;;153.50;67.10;;;;;;;;;;5035558;28;20100;-82
2021/12/26 05:02:58;;;;;;;178.27;74.22;;;;;;;;;;5041424;28;20029;-82
2021/12/26 05:05:26;;;;;;;146.15;64.47;;;;;;;;;;5022180;28;20432;-81
2021/12/26 05:07:53;;;;;;;147.40;69.00;;;;;;;;;;5011884;28;20044;-81
2021/12/26 05:10:19;;;;;;;164.63;70.55;;;;;;;;;;5028196;28;20052;-81
2021/12/26 05:12:47;;;;;;;156.43;68.57;;;;;;;;;;5027237;28;20033;-82
2021/12/26 05:15:16;;;;;;;160.05;70.68;;;;;;;;;;5010225;28;20030;-83
2021/12/26 05:17:43;;;;;;;157.68;69.47;;;;;;;;;;5026042;28;20046;-84
2021/12/26 05:20:10;;;;;;;153.82;71.82;;;;;;;;;;5009945;28;20082;-83
2021/12/26 05:22:36;;;;;;;156.38;72.88;;;;;;;;;;5026801;28;20048;-84
2021/12/26 05:25:06;;;;;;;152.05;71.47;;;;;;;;;;5025951;28;20037;-82
2021/12/26 05:27:33;;;;;;;148.48;66.90;;;;;;;;;;5006976;28;20104;-83
2021/12/26 05:29:59;;;;;;;152.45;69.60;;;;;;;;;;5023059;28;20073;-83
2021/12/26 05:32:25;;;;;;;143.05;67.75;;;;;;;;;;5023004;28;20033;-83
2021/12/26 05:34:52;;;;;;;163.57;72.40;;;;;;;;;;5022699;28;20034;-82
2021/12/26 05:37:18;;;;;;;143.85;70.82;;;;;;;;;;5024427;28;20076;-83
2021/12/26 05:39:45;;;;;;;154.55;69.05;;;;;;;;;;5022001;28;20453;-82
2021/12/26 05:42:15;;;;;;;150.88;70.80;;;;;;;;;;5005062;28;20052;-83
2021/12/26 05:44:42;;;;;;;142.93;70.68;;;;;;;;;;5027550;28;20034;-83
2021/12/26 05:47:09;;;;;;;144.52;69.55;;;;;;;;;;5024114;28;20045;-84
2021/12/26 05:49:35;;;;;;;140.93;68.55;;;;;;;;;;5031451;28;20037;-83
2021/12/26 05:52:01;;;;;;;144.55;71.28;;;;;;;;;;5032039;28;20056;-82
2021/12/26 05:54:27;;;;;;;144.65;70.13;;;;;;;;;;5032551;28;20025;-83
2021/12/26 05:56:54;;;;;;;138.93;67.63;;;;;;;;;;5025854;28;20128;-82
2021/12/26 05:59:20;;;;;;;121.55;60.67;;;;;;;;;;5023656;28;20029;-82
2021/12/26 06:01:46;;;;;;;120.63;61.10;;;;;;;;;;5028981;28;20029;-82
2021/12/26 06:04:13;;;;;;;114.53;60.00;;;;;;;;;;5003653;28;20120;-83
2021/12/26 06:06:39;;;;;;;117.88;59.25;;;;;;;;;;5029458;28;20029;-82
2021/12/26 06:09:06;;;;;;;130.85;66.38;;;;;;;;;;5024484;28;20487;-83
2021/12/26 06:11:33;;;;;;;122.22;65.20;;;;;;;;;;5027977;28;20030;-83
2021/12/26 06:13:59;;;;;;;113.60;57.08;;;;;;;;;;5026250;28;20029;-83
2021/12/26 06:16:25;;;;;;;116.78;60.35;;;;;;;;;;5024172;28;20477;-82
2021/12/26 06:18:52;;;;;;;110.18;55.72;;;;;;;;;;5026042;28;20076;-84
2021/12/26 06:21:19;;;;;;;114.93;58.05;;;;;;;;;;5010544;28;20034;-84
2021/12/26 06:23:50;;;;;;;120.78;58.03;;;;;;;;;;5024056;28;20033;-82
2021/12/26 06:26:17;;;;;;;109.05;58.03;;;;;;;;;;5027004;28;20509;-83
2021/12/26 06:28:43;;;;;;;107.85;57.83;;;;;;;;;;5029306;28;20040;-84
2021/12/26 06:31:10;;;;;;;99.40;52.05;;;;;;;;;;5030130;28;20121;-82
2021/12/26 06:33:36;;;;;;;106.45;56.33;;;;;;;;;;5029647;28;20375;-82
2021/12/26 06:36:02;;;;;;;106.10;53.30;;;;;;;;;;5028827;28;20026;-83
2021/12/26 06:38:29;;;;;;;108.30;58.17;;;;;;;;;;5009690;28;20037;-83
2021/12/26 06:40:55;;;;;;;110.10;59.63;;;;;;;;;;5008686;28;20099;-82
2021/12/26 06:43:21;;;;;;;111.13;58.38;;;;;;;;;;5028236;28;20447;-82
2021/12/26 06:45:48;;;;;;;112.50;59.30;;;;;;;;;;5029138;28;20331;-83
2021/12/26 06:48:14;;;;;;;117.32;62.08;;;;;;;;;;5029658;28;20036;-83
2021/12/26 06:50:41;;;;;;;111.30;61.38;;;;;;;;;;5027406;28;20065;-83
2021/12/26 06:53:07;;;;;;;115.90;60.67;;;;;;;;;;5023263;28;20029;-81
2021/12/26 06:55:33;;;;;;;118.93;66.00;;;;;;;;;;5029227;28;20033;-82
2021/12/26 06:58:00;;;;;;;110.10;58.22;;;;;;;;;;5027689;28;20088;-82
2021/12/26 07:00:26;;;;;;;131.02;64.85;;;;;;;;;;5005973;28;20060;-81
2021/12/26 07:02:52;;;;;;;126.78;66.00;;;;;;;;;;5007442;28;20037;-82
2021/12/26 07:05:19;;;;;;;127.82;64.30;;;;;;;;;;5026546;28;20395;-82
2021/12/26 07:07:45;;;;;;;130.18;68.32;;;;;;;;;;5008166;28;20068;-83
2021/12/26 07:10:11;;;;;;;124.47;65.20;;;;;;;;;;5029402;28;20021;-83
2021/12/26 07:12:38;;;;;;;130.02;67.22;;;;;;;;;;5009424;28;20030;-82
2021/12/26 07:15:05;;;;;;;118.88;65.90;;;;;;;;;;5025778;28;20056;-83
2021/12/26 07:17:31;;;;;;;119.70;63.72;;;;;;;;;;5023828;28;20041;-82
2021/12/26 07:19:57;;;;;;;120.93;64.38;;;;;;;;;;5006668;28;20030;-84
2021/12/26 07:22:24;;;;;;;127.57;68.03;;;;;;;;;;5009401;28;20026;-84
2021/12/26 07:24:50;;;;;;;122.65;66.32;;;;;;;;;;5008048;28;20025;-84
2021/12/26 07:27:17;;;;;;;121.35;65.78;;;;;;;;;;5013110;28;20033;-81
2021/12/26 07:29:43;;;;;;;128.18;66.68;;;;;;;;;;5031925;28;20041;-83
2021/12/26 07:32:12;;;;;;;100.03;51.30;;;;;;;;;;5033303;28;20033;-83
2021/12/26 07:34:40;;;;;;;99.90;52.45;;;;;;;;;;5014928;28;20030;-82
2021/12/26 07:37:06;;;;;;;98.03;51.28;;;;;;;;;;5032320;28;20025;-83
2021/12/26 07:39:32;;;;;;;97.10;51.90;;;;;;;;;;5012564;28;20034;-83
2021/12/26 07:41:59;;;;;;;96.30;49.65;;;;;;;;;;5031517;28;20105;-83
2021/12/26 07:44:25;;;;;;;94.63;50.30;;;;;;;;;;5031980;28;20018;-82
2021/12/26 07:46:52;;;;;;;94.90;52.40;;;;;;;;;;5011188;28;20024;-82
2021/12/26 07:49:19;;;;;;;109.13;54.90;;;;;;;;;;5008689;28;20465;-84
2021/12/26 07:51:47;;;;;;;94.75;54.78;;;;;;;;;;5032121;28;20492;-82
2021/12/26 07:54:15;;;;;;;98.45;51.72;;;;;;;;;;5042777;28;20419;-83
2021/12/26 07:56:41;;;;;;;97.20;50.78;;;;;;;;;;5026530;28;20030;-82
2021/12/26 07:59:08;;;;;;;99.72;52.92;;;;;;;;;;5053987;28;20022;-84
2021/12/26 08:01:34;;;;;;;103.38;53.08;;;;;;;;;;5044236;28;20084;-82
2021/12/26 08:04:02;;;;;;;98.28;51.15;;;;;;;;;;5025320;28;20503;-83
2021/12/26 08:06:31;;;;;;;86.20;46.33;;;;;;;;;;5041671;28;20120;-82
2021/12/26 08:09:00;;;;;;;67.13;32.97;;;;;;;;;;5027875;28;20480;-84
2021/12/26 08:11:26;;;;;;;59.00;30.35;;;;;;;;;;5008295;28;20033;-83
2021/12/26 08:13:53;;;;;;;47.28;25.80;;;;;;;;;;5030865;28;20040;-82
2021/12/26 08:16:19;;;;;;;60.92;28.70;;;;;;;;;;5028267;28;20017;-83
2021/12/26 08:18:46;;;;;;;55.58;30.98;;;;;;;;;;5012345;28;20069;-83
2021/12/26 08:21:12;;;;;;;47.88;24.35;;;;;;;;;;5025541;28;20431;-84
2021/12/26 08:23:38;;;;;;;48.25;22.95;;;;;;;;;;5028467;28;20045;-83
2021/12/26 08:26:05;;;;;;;57.15;25.83;;;;;;;;;;5026837;28;20029;-83
2021/12/26 08:28:31;;;;;;;58.30;25.63;;;;;;;;;;5023737;28;20492;-82
2021/12/26 08:30:58;;;;;;;50.08;25.50;;;;;;;;;;5008565;28;20045;-82
2021/12/26 08:33:25;;;;;;;53.78;26.88;;;;;;;;;;5006665;28;20025;-82
2021/12/26 08:35:51;;;;;;;49.28;25.23;;;;;;;;;;5025464;28;20025;-83
2021/12/26 08:38:21;;;;;;;51.03;24.50;;;;;;;;;;5010625;28;20503;-82
2021/12/26 08:40:48;;;;;;;51.10;25.58;;;;;;;;;;5025838;28;20025;-83
2021/12/26 08:43:15;;;;;;;50.58;25.90;;;;;;;;;;5031503;28;20025;-82
2021/12/26 08:45:42;;;;;;;55.53;26.45;;;;;;;;;;5004543;28;20037;-83
2021/12/26 08:48:08;;;;;;;50.22;27.50;;;;;;;;;;5019862;28;20025;-81
2021/12/26 08:50:34;;;;;;;50.17;27.13;;;;;;;;;;5030228;28;20077;-85
2021/12/26 08:53:02;;;;;;;53.03;29.60;;;;;;;;;;5034868;28;20036;-85
2021/12/26 08:55:29;;;;;;;58.60;32.30;;;;;;;;;;5032942;28;20075;-83
2021/12/26 08:57:55;;;;;;;60.20;32.92;;;;;;;;;;5008873;28;20026;-83
2021/12/26 09:00:23;;;;;;;57.95;34.42;;;;;;;;;;5027475;28;20113;-82
2021/12/26 09:02:50;;;;;;;62.95;32.55;;;;;;;;;;5009049;28;20026;-83
2021/12/26 09:05:16;;;;;;;63.55;34.28;;;;;;;;;;5031992;28;20025;-84
2021/12/26 09:07:43;;;;;;;62.67;32.92;;;;;;;;;;5027795;28;20037;-83
2021/12/26 09:10:11;;;;;;;76.25;41.72;;;;;;;;;;5011348;28;20460;-84
2021/12/26 09:12:38;;;;;;;77.07;43.00;;;;;;;;;;5028936;28;20083;-82
2021/12/26 09:15:05;;;;;;;75.15;43.88;;;;;;;;;;5026950;28;20034;-83
2021/12/26 09:17:32;;;;;;;78.43;44.60;;;;;;;;;;5003142;28;20048;-83
2021/12/26 09:19:58;;;;;;;91.75;51.38;;;;;;;;;;5022710;28;20022;-83
2021/12/26 09:22:24;;;;;;;84.25;48.58;;;;;;;;;;5007019;28;20071;-83
2021/12/26 09:24:51;;;;;;;82.93;47.72;;;;;;;;;;5021381;28;20096;-83
2021/12/26 09:27:18;;;;;;;90.07;48.22;;;;;;;;;;5023814;28;20057;-83
2021/12/26 09:29:44;;;;;;;92.57;48.95;;;;;;;;;;5006085;28;20034;-83
2021/12/26 09:32:11;;;;;;;86.72;48.90;;;;;;;;;;5022905;28;20079;-84
2021/12/26 09:34:38;;;;;;;92.43;51.30;;;;;;;;;;5023407;28;20033;-84
2021/12/26 09:37:06;;;;;;;89.60;51.08;;;;;;;;;;5022506;28;20036;-83
2021/12/26 09:39:55;;;;;;;95.28;51.63;;;;;;;;;;4984927;28;20305;-82
2021/12/26 09:42:24;;;;;;;97.43;55.10;;;;;;;;;;4996418;28;20100;-83
2021/12/26 09:44:50;;;;;;;92.55;54.38;;;;;;;;;;5013014;28;20025;-82
2021/12/26 09:47:17;;;;;;;90.80;52.25;;;;;;;;;;5027237;28;20477;-84
2021/12/26 09:49:43;;;;;;;77.70;44.65;;;;;;;;;;5029749;28;20036;-83
2021/12/26 09:52:10;;;;;;;83.38;47.65;;;;;;;;;;5027704;28;20493;-80
2021/12/26 09:54:37;;;;;;;91.80;51.55;;;;;;;;;;5024021;28;20034;-82
2021/12/26 09:57:03;;;;;;;95.30;54.03;;;;;;;;;;5021645;28;20021;-82
2021/12/26 09:59:30;;;;;;;93.68;53.95;;;;;;;;;;5031459;28;20067;-81
2021/12/26 10:02:00;;;;;;;92.78;52.78;;;;;;;;;;5029063;28;20037;-84
2021/12/26 10:04:26;;;;;;;102.32;56.53;;;;;;;;;;5031412;28;20021;-83
2021/12/26 10:07:13;;;;;;;110.53;57.60;;;;;;;;;;5008481;28;20423;-81
2021/12/26 10:09:41;;;;;;;103.85;57.00;;;;;;;;;;5032151;28;20052;-82
2021/12/26 10:12:08;;;;;;;100.82;56.78;;;;;;;;;;5015458;28;20033;-82
2021/12/26 10:14:37;;;;;;;96.88;56.75;;;;;;;;;;5008609;28;20029;-82
2021/12/26 10:17:10;;;;;;;102.05;54.58;;;;;;;;;;5033073;28;20029;-81
2021/12/26 10:19:44;;;;;;;99.85;57.05;;;;;;;;;;5034439;28;20025;-83
2021/12/26 10:22:12;;;;;;;98.88;55.88;;;;;;;;;;5032268;28;20372;-81
2021/12/26 10:24:40;;;;;;;107.18;57.85;;;;;;;;;;5034197;28;20032;-82
2021/12/26 10:27:08;;;;;;;119.78;63.47;;;;;;;;;;5034355;28;20038;-82
2021/12/26 10:29:38;;;;;;;120.47;64.93;;;;;;;;;;5016626;28;20045;-81
2021/12/26 10:32:09;;;;;;;127.07;69.53;;;;;;;;;;5028837;28;20022;-83
2021/12/26 10:34:37;;;;;;;133.32;71.93;;;;;;;;;;5039942;28;20472;-81
2021/12/26 10:37:07;;;;;;;137.07;75.13;;;;;;;;;;5031287;28;20025;-82
2021/12/26 10:39:53;;;;;;;152.27;80.07;;;;;;;;;;5033576;28;20021;-82
2021/12/26 10:42:24;;;;;;;161.90;85.57;;;;;;;;;;5032620;28;20025;-84
2021/12/26 10:44:54;;;;;;;157.88;84.18;;;;;;;;;;5027224;28;20048;-81
2021/12/26 10:47:25;;;;;;;167.65;87.75;;;;;;;;;;5029762;28;20388;-81
2021/12/26 10:49:55;;;;;;;188.95;96.85;;;;;;;;;;5034155;28;20399;-82
2021/12/26 10:52:23;;;;;;;185.82;97.70;;;;;;;;;;5012509;28;20088;-80
2021/12/26 10:54:51;;;;;;;178.20;94.82;;;;;;;;;;5008856;28;20546;-81
2021/12/26 10:57:19;;;;;;;178.82;94.35;;;;;;;;;;5012028;28;20584;-83
2021/12/26 10:59:47;;;;;;;186.10;94.57;;;;;;;;;;5014241;28;20028;-83
2021/12/26 11:02:24;;;;;;;179.48;93.47;;;;;;;;;;5024639;28;20415;-81
2021/12/26 11:05:02;;;;;;;188.15;95.93;;;;;;;;;;5032312;28;20435;-82
2021/12/26 11:07:29;;;;;;;194.40;96.95;;;;;;;;;;5036083;28;20021;-82
2021/12/26 11:10:04;;;;;;;182.27;97.53;;;;;;;;;;5032043;28;20036;-80
2021/12/26 11:12:39;;;;;;;212.10;108.95;;;;;;;;;;5031749;28;20033;-82
2021/12/26 11:15:06;;;;;;;210.23;111.13;;;;;;;;;;5029667;28;20035;-82
2021/12/26 11:17:33;;;;;;;221.00;118.03;;;;;;;;;;5014244;28;20128;-82
2021/12/26 11:20:00;;;;;;;217.55;118.15;;;;;;;;;;5032826;28;20031;-83
2021/12/26 11:22:27;;;;;;;221.90;121.10;;;;;;;;;;5032289;28;20048;-82
2021/12/26 11:24:53;;;;;;;216.75;121.72;;;;;;;;;;5028629;28;20056;-82
2021/12/26 11:27:22;;;;;;;209.23;115.43;;;;;;;;;;5033301;28;20029;-82
2021/12/26 11:29:48;;;;;;;198.45;113.03;;;;;;;;;;5010634;28;20029;-82
2021/12/26 11:32:19;;;;;;;184.27;99.07;;;;;;;;;;5023571;28;20350;-82
2021/12/26 11:34:49;;;;;;;171.05;96.88;;;;;;;;;;5000550;28;20378;-82
2021/12/26 11:37:16;;;;;;;169.30;93.93;;;;;;;;;;5029780;28;20025;-82
2021/12/26 11:39:48;;;;;;;181.15;96.57;;;;;;;;;;5015869;28;20029;-82
2021/12/26 11:42:14;;;;;;;189.65;101.43;;;;;;;;;;5033800;28;20140;-82
2021/12/26 11:44:57;;;;;;;187.68;105.93;;;;;;;;;;5037888;28;20064;-82
2021/12/26 11:47:46;;;;;;;191.18;102.55;;;;;;;;;;5036788;28;20117;-81
2021/12/26 11:50:31;;;;;;;198.25;107.07;;;;;;;;;;5026186;28;20101;-81
2021/12/26 11:53:00;;;;;;;188.45;102.93;;;;;;;;;;5026808;28;20052;-82
2021/12/26 11:55:41;;;;;;;174.15;100.75;;;;;;;;;;5009471;28;20040;-84
2021/12/26 11:58:23;;;;;;;182.93;97.00;;;;;;;;;;5028203;28;20524;-82
2021/12/26 12:00:52;;;;;;;171.77;94.95;;;;;;;;;;5029838;28;21612;-82
2021/12/26 12:03:19;;;;;;;178.32;98.38;;;;;;;;;;5012588;28;20552;-81
2021/12/26 12:05:45;;;;;;;173.88;99.28;;;;;;;;;;5027744;28;20084;-83
2021/12/26 12:08:16;;;;;;;178.25;96.40;;;;;;;;;;5024479;28;20057;-82
2021/12/26 12:10:45;;;;;;;187.10;102.22;;;;;;;;;;5011604;28;20033;-82
2021/12/26 12:13:35;;;;;;;191.80;105.00;;;;;;;;;;5011991;28;20037;-82
2021/12/26 12:16:08;;;;;;;181.15;102.65;;;;;;;;;;5018572;28;20113;-81
2021/12/26 12:18:36;;;;;;;190.40;105.45;;;;;;;;;;5024807;28;20045;-82
2021/12/26 12:21:17;;;;;;;197.38;111.43;;;;;;;;;;5028981;28;20053;-82
2021/12/26 12:24:03;;;;;;;200.23;109.38;;;;;;;;;;5012584;28;20033;-83
2021/12/26 12:26:46;;;;;;;198.68;107.22;;;;;;;;;;5028433;28;20493;-82
2021/12/26 12:29:33;;;;;;;190.02;102.78;;;;;;;;;;5030914;28;20029;-82
2021/12/26 12:32:08;;;;;;;200.95;111.15;;;;;;;;;;5030052;28;20511;-81
2021/12/26 12:35:09;;;;;;;195.63;108.25;;;;;;;;;;5010402;28;20060;-81
2021/12/26 12:37:46;;;;;;;209.35;114.43;;;;;;;;;;5015074;28;20088;-81
2021/12/26 12:40:12;;;;;;;204.40;113.50;;;;;;;;;;5024745;28;20029;-83
2021/12/26 12:42:40;;;;;;;204.25;111.13;;;;;;;;;;5027081;28;20021;-82
2021/12/26 12:45:07;;;;;;;203.48;114.30;;;;;;;;;;5033224;28;20037;-80
2021/12/26 12:47:33;;;;;;;206.32;112.25;;;;;;;;;;5030504;28;20041;-82
2021/12/26 12:50:02;;;;;;;197.68;111.65;;;;;;;;;;5033510;28;20040;-84
2021/12/26 12:52:38;;;;;;;213.43;114.57;;;;;;;;;;5034261;28;20111;-83
2021/12/26 12:55:05;;;;;;;203.18;114.40;;;;;;;;;;5031285;28;20064;-82
2021/12/26 12:57:42;;;;;;;213.50;114.28;;;;;;;;;;5027959;28;20032;-82
2021/12/26 13:00:24;;;;;;;228.05;120.38;;;;;;;;;;5008655;28;20029;-84
2021/12/26 13:02:51;;;;;;;242.77;134.90;;;;;;;;;;5026897;28;20025;-82
2021/12/26 13:05:24;;;;;;;262.67;144.00;;;;;;;;;;5026074;28;20025;-82
2021/12/26 13:07:57;;;;;;;247.75;143.20;;;;;;;;;;5011223;28;20468;-81
2021/12/26 13:10:23;;;;;;;267.17;148.60;;;;;;;;;;5010238;28;20079;-82
2021/12/26 13:12:50;;;;;;;268.92;149.00;;;;;;;;;;5010596;28;20112;-82
2021/12/26 13:15:16;;;;;;;285.85;155.30;;;;;;;;;;5010471;28;20542;-82
2021/12/26 13:17:45;;;;;;;268.23;148.68;;;;;;;;;;5031318;28;20421;-82
2021/12/26 13:20:13;;;;;;;292.65;172.55;;;;;;;;;;5032438;28;20065;-83
2021/12/26 13:22:47;;;;;;;302.60;175.98;;;;;;;;;;5032941;28;20033;-81
2021/12/26 13:25:32;;;;;;;329.13;204.73;;;;;;;;;;5013929;28;20116;-83
2021/12/26 13:27:59;;;;;;;350.17;218.57;;;;;;;;;;5032561;28;20050;-82
2021/12/26 13:30:27;;;;;;;382.95;232.88;;;;;;;;;;5032766;28;20480;-83
2021/12/26 13:32:54;;;;;;;387.80;244.95;;;;;;;;;;5025764;28;20034;-82
2021/12/26 13:35:29;;;;;;;408.25;253.65;;;;;;;;;;5028688;28;20028;-83
2021/12/26 13:37:56;;;;;;;412.00;259.77;;;;;;;;;;5031316;28;20079;-81
2021/12/26 13:40:23;;;;;;;411.67;262.52;;;;;;;;;;5032251;28;20105;-83
2021/12/26 13:42:52;;;;;;;418.05;266.63;;;;;;;;;;5027142;28;20104;-83
2021/12/26 13:45:29;;;;;;;405.30;262.25;;;;;;;;;;5021747;28;20119;-83
2021/12/26 13:47:56;;;;;;;413.60;259.80;;;;;;;;;;5023678;28;20116;-83
2021/12/26 13:50:22;;;;;;;337.42;207.35;;;;;;;;;;5031149;28;20029;-83
2021/12/26 13:52:58;;;;;;;326.40;193.65;;;;;;;;;;5030689;28;20037;-81
2021/12/26 13:55:25;;;;;;;294.75;163.80;;;;;;;;;;5029846;28;20045;-81
2021/12/26 13:58:01;;;;;;;281.15;166.57;;;;;;;;;;5031907;28;20032;-83
2021/12/26 14:00:28;;;;;;;265.35;145.90;;;;;;;;;;5030724;28;20022;-82
2021/12/26 14:02:54;;;;;;;244.35;138.32;;;;;;;;;;5014165;28;20041;-82
2021/12/26 14:05:24;;;;;;;250.63;134.05;;;;;;;;;;5029707;28;20053;-84
2021/12/26 14:07:58;;;;;;;236.80;128.13;;;;;;;;;;5020151;28;20396;-83
2021/12/26 14:10:25;;;;;;;241.45;129.18;;;;;;;;;;5028997;28;20457;-82
2021/12/26 14:12:55;;;;;;;245.35;133.02;;;;;;;;;;5042145;28;20029;-81
2021/12/26 14:15:24;;;;;;;247.10;137.43;;;;;;;;;;5023369;28;20171;-81